sensor_id;sensor_type;location;lat;lon;timestamp;temperature;humidity
61672;DHT22;47572;0.00000000;0.00000000;2022-10-16T00:01:51;19.80;72.20
61672;DHT22;47572;0.00000000;0.00000000;2022-10-16T00:04:17;19.80;72.20
61672;DHT22;47572;0.00000000;0.00000000;2022-10-16T00:06:43;19.80;72.10
61672;DHT22;47572;0.00000000;0.00000000;2022-10-16T00:09:08;19.80;72.20
61672;DHT22;47572;0.00000000;0.00000000;2022-10-16T00:11:35;19.80;72.10
61672;DHT22;47572;0.00000000;0.00000000;2022-10-16T00:14:05;19.70;72.10
61672;DHT22;47572;0.00000000;0.00000000;2022-10-16T00:16:31;19.70;72.10
61672;DHT22;47572;0.00000000;0.00000000;2022-10-16T00:18:57;19.70;72.10
61672;DHT22;47572;0.00000000;0.00000000;2022-10-16T00:21:24;19.70;72.20
61672;DHT22;47572;0.00000000;0.00000000;2022-10-16T00:23:51;19.70;72.10
61672;DHT22;47572;0.00000000;0.00000000;2022-10-16T00:26:18;19.70;72.20
61672;DHT22;47572;0.00000000;0.00000000;2022-10-16T00:28:45;19.70;72.10
61672;DHT22;47572;0.00000000;0.00000000;2022-10-16T00:31:11;19.70;72.20
61672;DHT22;47572;0.00000000;0.00000000;2022-10-16T00:33:38;19.70;72.20
61672;DHT22;47572;0.00000000;0.00000000;2022-10-16T00:36:10;19.70;72.10
61672;DHT22;47572;0.00000000;0.00000000;2022-10-16T00:38:37;19.70;72.10
61672;DHT22;47572;0.00000000;0.00000000;2022-10-16T00:41:06;19.70;72.20
61672;DHT22;47572;0.00000000;0.00000000;2022-10-16T00:43:43;19.70;72.10
61672;DHT22;47572;0.00000000;0.00000000;2022-10-16T00:46:13;19.70;72.10
61672;DHT22;47572;0.00000000;0.00000000;2022-10-16T00:48:40;19.70;72.10
61672;DHT22;47572;0.00000000;0.00000000;2022-10-16T00:51:06;19.70;72.10
61672;DHT22;47572;0.00000000;0.00000000;2022-10-16T00:53:32;19.60;72.00
61672;DHT22;47572;0.00000000;0.00000000;2022-10-16T00:55:58;19.60;72.00
61672;DHT22;47572;0.00000000;0.00000000;2022-10-16T00:58:24;19.60;72.00
61672;DHT22;47572;0.00000000;0.00000000;2022-10-16T01:00:50;19.60;72.00
61672;DHT22;47572;0.00000000;0.00000000;2022-10-16T01:03:49;19.60;72.00
61672;DHT22;47572;0.00000000;0.00000000;2022-10-16T01:08:49;19.60;72.00
61672;DHT22;47572;0.00000000;0.00000000;2022-10-16T01:11:35;19.60;72.00
61672;DHT22;47572;0.00000000;0.00000000;2022-10-16T01:17:06;19.60;72.10
61672;DHT22;47572;0.00000000;0.00000000;2022-10-16T01:22:10;19.60;72.00
61672;DHT22;47572;0.00000000;0.00000000;2022-10-16T01:24:40;19.60;72.00
61672;DHT22;47572;0.00000000;0.00000000;2022-10-16T01:35:35;19.60;71.90
61672;DHT22;47572;0.00000000;0.00000000;2022-10-16T01:37:43;19.60;71.90
61672;DHT22;47572;0.00000000;0.00000000;2022-10-16T01:40:12;19.60;72.00
61672;DHT22;47572;0.00000000;0.00000000;2022-10-16T01:42:40;19.50;71.90
61672;DHT22;47572;0.00000000;0.00000000;2022-10-16T01:45:07;19.50;71.80
61672;DHT22;47572;0.00000000;0.00000000;2022-10-16T01:47:34;19.60;71.80
61672;DHT22;47572;0.00000000;0.00000000;2022-10-16T01:50:01;19.50;71.80
61672;DHT22;47572;0.00000000;0.00000000;2022-10-16T01:52:27;19.50;71.80
61672;DHT22;47572;0.00000000;0.00000000;2022-10-16T01:54:54;19.50;71.80
61672;DHT22;47572;0.00000000;0.00000000;2022-10-16T01:57:21;19.50;71.80
61672;DHT22;47572;0.00000000;0.00000000;2022-10-16T01:59:48;19.50;71.80
61672;DHT22;47572;0.00000000;0.00000000;2022-10-16T02:02:16;19.50;72.60
61672;DHT22;47572;0.00000000;0.00000000;2022-10-16T02:04:44;19.50;71.80
61672;DHT22;47572;0.00000000;0.00000000;2022-10-16T02:07:11;19.50;71.70
61672;DHT22;47572;0.00000000;0.00000000;2022-10-16T02:09:36;19.50;71.70
61672;DHT22;47572;0.00000000;0.00000000;2022-10-16T02:12:06;19.50;71.70
61672;DHT22;47572;0.00000000;0.00000000;2022-10-16T02:14:34;19.50;71.70
61672;DHT22;47572;0.00000000;0.00000000;2022-10-16T02:17:01;19.50;71.70
61672;DHT22;47572;0.00000000;0.00000000;2022-10-16T02:19:26;19.50;71.70
61672;DHT22;47572;0.00000000;0.00000000;2022-10-16T02:22:00;19.50;71.70
61672;DHT22;47572;0.00000000;0.00000000;2022-10-16T02:24:30;19.50;71.70
61672;DHT22;47572;0.00000000;0.00000000;2022-10-16T02:27:00;19.40;71.60
61672;DHT22;47572;0.00000000;0.00000000;2022-10-16T02:29:29;19.40;71.60
61672;DHT22;47572;0.00000000;0.00000000;2022-10-16T02:32:01;19.50;71.70
61672;DHT22;47572;0.00000000;0.00000000;2022-10-16T02:34:27;19.40;71.60
61672;DHT22;47572;0.00000000;0.00000000;2022-10-16T02:36:54;19.40;71.60
61672;DHT22;47572;0.00000000;0.00000000;2022-10-16T02:39:21;19.40;71.60
61672;DHT22;47572;0.00000000;0.00000000;2022-10-16T02:41:47;19.40;71.60
61672;DHT22;47572;0.00000000;0.00000000;2022-10-16T02:44:15;19.40;71.50
61672;DHT22;47572;0.00000000;0.00000000;2022-10-16T02:46:41;19.40;71.60
61672;DHT22;47572;0.00000000;0.00000000;2022-10-16T02:49:07;19.40;71.60
61672;DHT22;47572;0.00000000;0.00000000;2022-10-16T02:51:32;19.40;71.60
61672;DHT22;47572;0.00000000;0.00000000;2022-10-16T02:53:58;19.40;71.50
61672;DHT22;47572;0.00000000;0.00000000;2022-10-16T02:56:24;19.40;71.50
61672;DHT22;47572;0.00000000;0.00000000;2022-10-16T02:58:49;19.40;71.60
61672;DHT22;47572;0.00000000;0.00000000;2022-10-16T03:01:15;19.40;71.50
61672;DHT22;47572;0.00000000;0.00000000;2022-10-16T03:03:42;19.40;71.50
61672;DHT22;47572;0.00000000;0.00000000;2022-10-16T03:06:08;19.40;71.60
61672;DHT22;47572;0.00000000;0.00000000;2022-10-16T03:08:33;19.40;71.50
61672;DHT22;47572;0.00000000;0.00000000;2022-10-16T03:10:59;19.40;71.50
61672;DHT22;47572;0.00000000;0.00000000;2022-10-16T03:13:25;19.40;71.50
61672;DHT22;47572;0.00000000;0.00000000;2022-10-16T03:15:50;19.40;71.60
61672;DHT22;47572;0.00000000;0.00000000;2022-10-16T03:18:16;19.40;71.60
61672;DHT22;47572;0.00000000;0.00000000;2022-10-16T03:20:42;19.30;71.60
61672;DHT22;47572;0.00000000;0.00000000;2022-10-16T03:23:08;19.40;71.60
61672;DHT22;47572;0.00000000;0.00000000;2022-10-16T03:25:34;19.40;71.60
61672;DHT22;47572;0.00000000;0.00000000;2022-10-16T03:28:00;19.30;71.50
61672;DHT22;47572;0.00000000;0.00000000;2022-10-16T03:30:26;19.40;71.60
61672;DHT22;47572;0.00000000;0.00000000;2022-10-16T03:32:52;19.30;71.50
61672;DHT22;47572;0.00000000;0.00000000;2022-10-16T03:35:21;19.30;71.50
61672;DHT22;47572;0.00000000;0.00000000;2022-10-16T03:37:47;19.30;71.50
61672;DHT22;47572;0.00000000;0.00000000;2022-10-16T03:40:12;19.30;71.50
61672;DHT22;47572;0.00000000;0.00000000;2022-10-16T03:42:38;19.30;71.50
61672;DHT22;47572;0.00000000;0.00000000;2022-10-16T03:45:04;19.30;71.50
61672;DHT22;47572;0.00000000;0.00000000;2022-10-16T03:47:30;19.30;71.40
61672;DHT22;47572;0.00000000;0.00000000;2022-10-16T03:49:58;19.30;71.50
61672;DHT22;47572;0.00000000;0.00000000;2022-10-16T03:52:24;19.30;71.40
61672;DHT22;47572;0.00000000;0.00000000;2022-10-16T03:54:49;19.30;71.40
61672;DHT22;47572;0.00000000;0.00000000;2022-10-16T03:57:15;19.30;71.40
61672;DHT22;47572;0.00000000;0.00000000;2022-10-16T03:59:41;19.30;71.40
61672;DHT22;47572;0.00000000;0.00000000;2022-10-16T04:02:06;19.30;71.40
61672;DHT22;47572;0.00000000;0.00000000;2022-10-16T04:04:33;19.30;71.40
61672;DHT22;47572;0.00000000;0.00000000;2022-10-16T04:06:59;19.30;71.40
61672;DHT22;47572;0.00000000;0.00000000;2022-10-16T04:09:25;19.30;71.40
61672;DHT22;47572;0.00000000;0.00000000;2022-10-16T04:11:51;19.30;71.30
61672;DHT22;47572;0.00000000;0.00000000;2022-10-16T04:14:17;19.20;71.30
61672;DHT22;47572;0.00000000;0.00000000;2022-10-16T04:16:42;19.30;71.30
61672;DHT22;47572;0.00000000;0.00000000;2022-10-16T04:19:09;19.30;71.30
61672;DHT22;47572;0.00000000;0.00000000;2022-10-16T04:21:34;19.20;71.30
61672;DHT22;47572;0.00000000;0.00000000;2022-10-16T04:24:00;19.30;71.30
61672;DHT22;47572;0.00000000;0.00000000;2022-10-16T04:26:26;19.30;71.20
61672;DHT22;47572;0.00000000;0.00000000;2022-10-16T04:28:52;19.30;71.20
61672;DHT22;47572;0.00000000;0.00000000;2022-10-16T04:31:18;19.20;71.10
61672;DHT22;47572;0.00000000;0.00000000;2022-10-16T04:33:44;19.30;71.10
61672;DHT22;47572;0.00000000;0.00000000;2022-10-16T04:36:09;19.20;71.00
61672;DHT22;47572;0.00000000;0.00000000;2022-10-16T04:38:35;19.20;71.00
61672;DHT22;47572;0.00000000;0.00000000;2022-10-16T04:41:03;19.20;71.00
61672;DHT22;47572;0.00000000;0.00000000;2022-10-16T04:43:29;19.20;71.00
61672;DHT22;47572;0.00000000;0.00000000;2022-10-16T04:45:55;19.20;71.00
61672;DHT22;47572;0.00000000;0.00000000;2022-10-16T04:48:22;19.20;71.00
61672;DHT22;47572;0.00000000;0.00000000;2022-10-16T04:50:47;19.20;71.00
61672;DHT22;47572;0.00000000;0.00000000;2022-10-16T04:53:13;19.20;70.90
61672;DHT22;47572;0.00000000;0.00000000;2022-10-16T04:55:39;19.20;70.90
61672;DHT22;47572;0.00000000;0.00000000;2022-10-16T04:58:05;19.20;70.90
61672;DHT22;47572;0.00000000;0.00000000;2022-10-16T05:00:31;19.20;70.90
61672;DHT22;47572;0.00000000;0.00000000;2022-10-16T05:02:57;19.20;70.90
61672;DHT22;47572;0.00000000;0.00000000;2022-10-16T05:05:24;19.20;70.90
61672;DHT22;47572;0.00000000;0.00000000;2022-10-16T05:07:51;19.20;70.90
61672;DHT22;47572;0.00000000;0.00000000;2022-10-16T05:10:16;19.20;70.90
61672;DHT22;47572;0.00000000;0.00000000;2022-10-16T05:12:42;19.20;70.90
61672;DHT22;47572;0.00000000;0.00000000;2022-10-16T05:15:08;19.20;70.80
61672;DHT22;47572;0.00000000;0.00000000;2022-10-16T05:17:34;19.10;70.80
61672;DHT22;47572;0.00000000;0.00000000;2022-10-16T05:20:00;19.10;70.80
61672;DHT22;47572;0.00000000;0.00000000;2022-10-16T05:22:25;19.10;70.80
61672;DHT22;47572;0.00000000;0.00000000;2022-10-16T05:24:51;19.10;70.70
61672;DHT22;47572;0.00000000;0.00000000;2022-10-16T05:27:17;19.10;70.70
61672;DHT22;47572;0.00000000;0.00000000;2022-10-16T05:29:45;19.10;70.70
61672;DHT22;47572;0.00000000;0.00000000;2022-10-16T05:32:16;19.10;70.80
61672;DHT22;47572;0.00000000;0.00000000;2022-10-16T05:34:42;19.10;70.70
61672;DHT22;47572;0.00000000;0.00000000;2022-10-16T05:37:08;19.10;70.70
61672;DHT22;47572;0.00000000;0.00000000;2022-10-16T05:39:34;19.10;70.70
61672;DHT22;47572;0.00000000;0.00000000;2022-10-16T05:42:02;19.10;70.70
61672;DHT22;47572;0.00000000;0.00000000;2022-10-16T05:44:28;19.10;70.70
61672;DHT22;47572;0.00000000;0.00000000;2022-10-16T05:46:54;19.10;70.70
61672;DHT22;47572;0.00000000;0.00000000;2022-10-16T05:49:19;19.10;70.70
61672;DHT22;47572;0.00000000;0.00000000;2022-10-16T05:51:45;19.10;70.70
61672;DHT22;47572;0.00000000;0.00000000;2022-10-16T05:54:11;19.10;70.70
61672;DHT22;47572;0.00000000;0.00000000;2022-10-16T05:56:37;19.10;70.70
61672;DHT22;47572;0.00000000;0.00000000;2022-10-16T05:59:03;19.10;70.70
61672;DHT22;47572;0.00000000;0.00000000;2022-10-16T06:01:28;19.10;70.70
61672;DHT22;47572;0.00000000;0.00000000;2022-10-16T06:03:54;19.10;70.80
61672;DHT22;47572;0.00000000;0.00000000;2022-10-16T06:06:21;19.00;70.80
61672;DHT22;47572;0.00000000;0.00000000;2022-10-16T06:08:47;19.10;70.70
61672;DHT22;47572;0.00000000;0.00000000;2022-10-16T06:11:15;19.10;70.70
61672;DHT22;47572;0.00000000;0.00000000;2022-10-16T06:13:41;19.10;70.80
61672;DHT22;47572;0.00000000;0.00000000;2022-10-16T06:16:08;19.10;70.70
61672;DHT22;47572;0.00000000;0.00000000;2022-10-16T06:18:34;19.10;70.70
61672;DHT22;47572;0.00000000;0.00000000;2022-10-16T06:20:59;19.00;70.70
61672;DHT22;47572;0.00000000;0.00000000;2022-10-16T06:23:31;19.00;70.60
61672;DHT22;47572;0.00000000;0.00000000;2022-10-16T06:26:07;19.00;70.70
61672;DHT22;47572;0.00000000;0.00000000;2022-10-16T06:28:33;19.00;70.70
61672;DHT22;47572;0.00000000;0.00000000;2022-10-16T06:31:00;19.00;70.70
61672;DHT22;47572;0.00000000;0.00000000;2022-10-16T06:33:26;19.00;70.70
61672;DHT22;47572;0.00000000;0.00000000;2022-10-16T06:35:52;19.00;70.60
61672;DHT22;47572;0.00000000;0.00000000;2022-10-16T06:38:18;19.00;70.60
61672;DHT22;47572;0.00000000;0.00000000;2022-10-16T06:40:43;19.00;70.60
61672;DHT22;47572;0.00000000;0.00000000;2022-10-16T06:43:09;19.00;70.60
61672;DHT22;47572;0.00000000;0.00000000;2022-10-16T06:45:35;19.00;70.60
61672;DHT22;47572;0.00000000;0.00000000;2022-10-16T06:48:00;19.00;70.60
61672;DHT22;47572;0.00000000;0.00000000;2022-10-16T06:50:26;19.00;70.60
61672;DHT22;47572;0.00000000;0.00000000;2022-10-16T06:52:52;19.00;70.60
61672;DHT22;47572;0.00000000;0.00000000;2022-10-16T06:55:17;19.00;70.60
61672;DHT22;47572;0.00000000;0.00000000;2022-10-16T06:57:43;19.00;70.50
61672;DHT22;47572;0.00000000;0.00000000;2022-10-16T07:00:09;19.00;70.60
61672;DHT22;47572;0.00000000;0.00000000;2022-10-16T07:02:35;19.00;70.60
61672;DHT22;47572;0.00000000;0.00000000;2022-10-16T07:05:01;19.00;70.50
61672;DHT22;47572;0.00000000;0.00000000;2022-10-16T07:07:26;19.00;70.60
61672;DHT22;47572;0.00000000;0.00000000;2022-10-16T07:09:52;19.00;70.50
61672;DHT22;47572;0.00000000;0.00000000;2022-10-16T07:12:18;19.00;70.60
61672;DHT22;47572;0.00000000;0.00000000;2022-10-16T07:14:44;19.00;70.50
61672;DHT22;47572;0.00000000;0.00000000;2022-10-16T07:17:09;19.00;70.50
61672;DHT22;47572;0.00000000;0.00000000;2022-10-16T07:19:35;19.00;70.40
61672;DHT22;47572;0.00000000;0.00000000;2022-10-16T07:22:01;19.00;70.40
61672;DHT22;47572;0.00000000;0.00000000;2022-10-16T07:24:27;19.00;70.20
61672;DHT22;47572;0.00000000;0.00000000;2022-10-16T07:26:52;19.00;70.20
61672;DHT22;47572;0.00000000;0.00000000;2022-10-16T07:29:19;18.90;70.20
61672;DHT22;47572;0.00000000;0.00000000;2022-10-16T07:31:45;18.90;70.30
61672;DHT22;47572;0.00000000;0.00000000;2022-10-16T07:34:13;18.90;70.70
61672;DHT22;47572;0.00000000;0.00000000;2022-10-16T07:36:39;18.90;70.90
61672;DHT22;47572;0.00000000;0.00000000;2022-10-16T07:39:05;18.90;70.80
61672;DHT22;47572;0.00000000;0.00000000;2022-10-16T07:41:30;18.90;70.90
61672;DHT22;47572;0.00000000;0.00000000;2022-10-16T07:43:58;18.90;70.90
61672;DHT22;47572;0.00000000;0.00000000;2022-10-16T07:46:25;18.90;71.00
61672;DHT22;47572;0.00000000;0.00000000;2022-10-16T07:48:51;18.90;71.00
61672;DHT22;47572;0.00000000;0.00000000;2022-10-16T07:51:18;19.00;71.30
61672;DHT22;47572;0.00000000;0.00000000;2022-10-16T07:53:44;19.00;71.30
61672;DHT22;47572;0.00000000;0.00000000;2022-10-16T07:56:10;19.00;71.20
61672;DHT22;47572;0.00000000;0.00000000;2022-10-16T07:58:37;18.90;71.10
61672;DHT22;47572;0.00000000;0.00000000;2022-10-16T08:01:03;19.00;71.30
61672;DHT22;47572;0.00000000;0.00000000;2022-10-16T08:03:29;19.00;71.30
61672;DHT22;47572;0.00000000;0.00000000;2022-10-16T08:05:56;19.00;71.30
61672;DHT22;47572;0.00000000;0.00000000;2022-10-16T08:08:22;19.00;71.30
61672;DHT22;47572;0.00000000;0.00000000;2022-10-16T08:10:48;19.00;71.30
61672;DHT22;47572;0.00000000;0.00000000;2022-10-16T08:13:14;19.00;71.30
61672;DHT22;47572;0.00000000;0.00000000;2022-10-16T08:15:41;19.00;71.30
61672;DHT22;47572;0.00000000;0.00000000;2022-10-16T08:18:06;19.10;71.30
61672;DHT22;47572;0.00000000;0.00000000;2022-10-16T08:20:32;19.10;71.30
61672;DHT22;47572;0.00000000;0.00000000;2022-10-16T08:22:59;19.10;71.30
61672;DHT22;47572;0.00000000;0.00000000;2022-10-16T08:25:25;19.10;71.30
61672;DHT22;47572;0.00000000;0.00000000;2022-10-16T08:27:50;19.10;71.30
61672;DHT22;47572;0.00000000;0.00000000;2022-10-16T08:30:17;19.10;71.40
61672;DHT22;47572;0.00000000;0.00000000;2022-10-16T08:32:44;19.10;71.40
61672;DHT22;47572;0.00000000;0.00000000;2022-10-16T08:35:11;19.10;71.50
61672;DHT22;47572;0.00000000;0.00000000;2022-10-16T08:37:37;19.10;71.40
61672;DHT22;47572;0.00000000;0.00000000;2022-10-16T08:40:03;19.10;71.40
61672;DHT22;47572;0.00000000;0.00000000;2022-10-16T08:50:36;19.10;71.40
61672;DHT22;47572;0.00000000;0.00000000;2022-10-16T08:53:03;19.20;71.60
61672;DHT22;47572;0.00000000;0.00000000;2022-10-16T08:55:45;19.20;71.60
61672;DHT22;47572;0.00000000;0.00000000;2022-10-16T08:58:22;19.20;71.50
61672;DHT22;47572;0.00000000;0.00000000;2022-10-16T09:00:53;19.20;71.50
61672;DHT22;47572;0.00000000;0.00000000;2022-10-16T09:04:25;19.20;71.50
61672;DHT22;47572;0.00000000;0.00000000;2022-10-16T09:08:51;19.20;71.40
61672;DHT22;47572;0.00000000;0.00000000;2022-10-16T09:11:36;19.20;71.50
61672;DHT22;47572;0.00000000;0.00000000;2022-10-16T09:16:53;19.20;71.60
61672;DHT22;47572;0.00000000;0.00000000;2022-10-16T09:19:26;19.20;71.70
61672;DHT22;47572;0.00000000;0.00000000;2022-10-16T09:21:53;19.20;71.70
61672;DHT22;47572;0.00000000;0.00000000;2022-10-16T09:24:20;19.20;71.60
61672;DHT22;47572;0.00000000;0.00000000;2022-10-16T09:26:46;19.20;71.70
61672;DHT22;47572;0.00000000;0.00000000;2022-10-16T09:29:13;19.20;71.70
61672;DHT22;47572;0.00000000;0.00000000;2022-10-16T09:31:39;19.20;71.70
61672;DHT22;47572;0.00000000;0.00000000;2022-10-16T09:34:05;19.20;71.60
61672;DHT22;47572;0.00000000;0.00000000;2022-10-16T09:36:42;19.20;71.70
61672;DHT22;47572;0.00000000;0.00000000;2022-10-16T09:39:10;19.20;71.70
61672;DHT22;47572;0.00000000;0.00000000;2022-10-16T09:41:37;19.30;71.70
61672;DHT22;47572;0.00000000;0.00000000;2022-10-16T09:44:05;19.20;71.60
61672;DHT22;47572;0.00000000;0.00000000;2022-10-16T09:46:39;19.30;71.70
61672;DHT22;47572;0.00000000;0.00000000;2022-10-16T09:49:18;19.30;71.70
61672;DHT22;47572;0.00000000;0.00000000;2022-10-16T09:51:45;19.30;71.70
61672;DHT22;47572;0.00000000;0.00000000;2022-10-16T09:54:13;19.30;71.60
61672;DHT22;47572;0.00000000;0.00000000;2022-10-16T09:56:39;19.30;71.60
61672;DHT22;47572;0.00000000;0.00000000;2022-10-16T09:59:10;19.30;71.60
61672;DHT22;47572;0.00000000;0.00000000;2022-10-16T10:01:44;19.30;71.60
61672;DHT22;47572;0.00000000;0.00000000;2022-10-16T10:04:11;19.30;71.50
61672;DHT22;47572;0.00000000;0.00000000;2022-10-16T10:06:43;19.40;71.60
61672;DHT22;47572;0.00000000;0.00000000;2022-10-16T10:16:48;19.40;71.50
61672;DHT22;47572;0.00000000;0.00000000;2022-10-16T10:19:15;19.40;71.40
61672;DHT22;47572;0.00000000;0.00000000;2022-10-16T10:21:41;19.40;71.40
61672;DHT22;47572;0.00000000;0.00000000;2022-10-16T10:24:11;19.40;71.40
61672;DHT22;47572;0.00000000;0.00000000;2022-10-16T10:26:37;19.40;71.30
61672;DHT22;47572;0.00000000;0.00000000;2022-10-16T10:29:13;19.40;71.30
61672;DHT22;47572;0.00000000;0.00000000;2022-10-16T10:32:31;19.40;71.20
61672;DHT22;47572;0.00000000;0.00000000;2022-10-16T10:34:45;19.40;71.20
61672;DHT22;47572;0.00000000;0.00000000;2022-10-16T11:00:22;19.40;71.00
61672;DHT22;47572;0.00000000;0.00000000;2022-10-16T11:05:42;19.50;70.80
61672;DHT22;47572;0.00000000;0.00000000;2022-10-16T11:13:23;19.50;70.60
61672;DHT22;47572;0.00000000;0.00000000;2022-10-16T11:15:51;19.50;70.50
61672;DHT22;47572;0.00000000;0.00000000;2022-10-16T11:18:20;19.50;70.60
61672;DHT22;47572;0.00000000;0.00000000;2022-10-16T11:20:48;19.40;70.70
61672;DHT22;47572;0.00000000;0.00000000;2022-10-16T11:23:16;19.50;70.70
61672;DHT22;47572;0.00000000;0.00000000;2022-10-16T11:25:43;19.40;70.70
61672;DHT22;47572;0.00000000;0.00000000;2022-10-16T11:28:11;19.40;70.70
61672;DHT22;47572;0.00000000;0.00000000;2022-10-16T11:31:02;19.40;70.60
61672;DHT22;47572;0.00000000;0.00000000;2022-10-16T11:41:10;19.40;70.70
61672;DHT22;47572;0.00000000;0.00000000;2022-10-16T11:43:41;19.40;70.70
61672;DHT22;47572;0.00000000;0.00000000;2022-10-16T11:46:10;19.40;70.70
61672;DHT22;47572;0.00000000;0.00000000;2022-10-16T11:49:22;19.40;70.60
61672;DHT22;47572;0.00000000;0.00000000;2022-10-16T11:51:30;19.40;70.50
61672;DHT22;47572;0.00000000;0.00000000;2022-10-16T11:56:23;19.40;70.40
61672;DHT22;47572;0.00000000;0.00000000;2022-10-16T11:58:54;19.40;70.50
61672;DHT22;47572;0.00000000;0.00000000;2022-10-16T12:03:55;19.40;70.50
61672;DHT22;47572;0.00000000;0.00000000;2022-10-16T12:06:37;19.40;70.40
61672;DHT22;47572;0.00000000;0.00000000;2022-10-16T12:09:09;19.40;70.40
61672;DHT22;47572;0.00000000;0.00000000;2022-10-16T12:11:38;19.50;70.40
61672;DHT22;47572;0.00000000;0.00000000;2022-10-16T12:14:05;19.50;70.10
61672;DHT22;47572;0.00000000;0.00000000;2022-10-16T12:16:31;19.50;70.00
61672;DHT22;47572;0.00000000;0.00000000;2022-10-16T12:19:11;19.50;70.10
61672;DHT22;47572;0.00000000;0.00000000;2022-10-16T12:21:37;19.50;69.90
61672;DHT22;47572;0.00000000;0.00000000;2022-10-16T12:24:03;19.50;69.80
61672;DHT22;47572;0.00000000;0.00000000;2022-10-16T12:26:33;19.50;69.90
61672;DHT22;47572;0.00000000;0.00000000;2022-10-16T12:32:00;19.50;69.80
61672;DHT22;47572;0.00000000;0.00000000;2022-10-16T12:34:36;19.50;69.60
61672;DHT22;47572;0.00000000;0.00000000;2022-10-16T12:37:11;19.50;69.70
61672;DHT22;47572;0.00000000;0.00000000;2022-10-16T12:39:38;19.50;69.70
61672;DHT22;47572;0.00000000;0.00000000;2022-10-16T12:42:05;19.50;69.40
61672;DHT22;47572;0.00000000;0.00000000;2022-10-16T12:44:32;19.50;69.30
61672;DHT22;47572;0.00000000;0.00000000;2022-10-16T12:46:58;19.60;69.40
61672;DHT22;47572;0.00000000;0.00000000;2022-10-16T12:49:37;19.50;69.30
61672;DHT22;47572;0.00000000;0.00000000;2022-10-16T12:52:03;19.60;69.40
61672;DHT22;47572;0.00000000;0.00000000;2022-10-16T12:54:30;19.60;69.30
61672;DHT22;47572;0.00000000;0.00000000;2022-10-16T12:59:59;19.60;69.60
61672;DHT22;47572;0.00000000;0.00000000;2022-10-16T13:02:42;19.60;69.50
61672;DHT22;47572;0.00000000;0.00000000;2022-10-16T13:13:31;19.60;69.20
61672;DHT22;47572;0.00000000;0.00000000;2022-10-16T13:21:05;19.50;69.20
61672;DHT22;47572;0.00000000;0.00000000;2022-10-16T13:26:06;19.60;69.00
61672;DHT22;47572;0.00000000;0.00000000;2022-10-16T13:28:34;19.50;69.00
61672;DHT22;47572;0.00000000;0.00000000;2022-10-16T13:31:01;19.60;69.00
61672;DHT22;47572;0.00000000;0.00000000;2022-10-16T13:33:34;19.60;69.10
61672;DHT22;47572;0.00000000;0.00000000;2022-10-16T13:36:02;19.60;69.00
61672;DHT22;47572;0.00000000;0.00000000;2022-10-16T13:38:35;19.50;68.90
61672;DHT22;47572;0.00000000;0.00000000;2022-10-16T13:41:03;19.50;68.80
61672;DHT22;47572;0.00000000;0.00000000;2022-10-16T13:43:31;19.50;68.80
61672;DHT22;47572;0.00000000;0.00000000;2022-10-16T13:45:58;19.60;68.60
61672;DHT22;47572;0.00000000;0.00000000;2022-10-16T13:48:25;19.50;68.50
61672;DHT22;47572;0.00000000;0.00000000;2022-10-16T13:51:11;19.50;68.50
61672;DHT22;47572;0.00000000;0.00000000;2022-10-16T13:53:37;19.50;68.40
61672;DHT22;47572;0.00000000;0.00000000;2022-10-16T13:56:04;19.50;68.50
61672;DHT22;47572;0.00000000;0.00000000;2022-10-16T13:58:30;19.50;68.60
61672;DHT22;47572;0.00000000;0.00000000;2022-10-16T14:00:57;19.50;68.60
61672;DHT22;47572;0.00000000;0.00000000;2022-10-16T14:03:34;19.50;68.60
61672;DHT22;47572;0.00000000;0.00000000;2022-10-16T14:06:01;19.50;68.70
61672;DHT22;47572;0.00000000;0.00000000;2022-10-16T14:08:28;19.50;68.80
61672;DHT22;47572;0.00000000;0.00000000;2022-10-16T14:10:58;19.50;68.90
61672;DHT22;47572;0.00000000;0.00000000;2022-10-16T14:15:56;19.50;69.10
61672;DHT22;47572;0.00000000;0.00000000;2022-10-16T14:18:24;19.50;69.20
61672;DHT22;47572;0.00000000;0.00000000;2022-10-16T14:20:51;19.50;69.20
61672;DHT22;47572;0.00000000;0.00000000;2022-10-16T14:23:22;19.50;69.30
61672;DHT22;47572;0.00000000;0.00000000;2022-10-16T14:25:48;19.50;69.40
61672;DHT22;47572;0.00000000;0.00000000;2022-10-16T14:28:21;19.50;69.50
61672;DHT22;47572;0.00000000;0.00000000;2022-10-16T14:30:57;19.50;69.60
61672;DHT22;47572;0.00000000;0.00000000;2022-10-16T14:36:13;19.40;69.60
61672;DHT22;47572;0.00000000;0.00000000;2022-10-16T14:38:47;19.40;69.70
61672;DHT22;47572;0.00000000;0.00000000;2022-10-16T14:41:14;19.40;69.70
61672;DHT22;47572;0.00000000;0.00000000;2022-10-16T14:43:41;19.40;69.80
61672;DHT22;47572;0.00000000;0.00000000;2022-10-16T14:46:18;19.40;69.80
61672;DHT22;47572;0.00000000;0.00000000;2022-10-16T14:48:48;19.40;69.90
61672;DHT22;47572;0.00000000;0.00000000;2022-10-16T14:51:18;19.40;70.00
61672;DHT22;47572;0.00000000;0.00000000;2022-10-16T14:53:45;19.40;70.10
61672;DHT22;47572;0.00000000;0.00000000;2022-10-16T14:56:16;19.40;70.10
61672;DHT22;47572;0.00000000;0.00000000;2022-10-16T14:58:42;19.40;70.20
61672;DHT22;47572;0.00000000;0.00000000;2022-10-16T15:01:09;19.40;70.20
61672;DHT22;47572;0.00000000;0.00000000;2022-10-16T15:03:36;19.40;70.30
61672;DHT22;47572;0.00000000;0.00000000;2022-10-16T15:06:02;19.40;70.30
61672;DHT22;47572;0.00000000;0.00000000;2022-10-16T15:08:27;19.40;70.40
61672;DHT22;47572;0.00000000;0.00000000;2022-10-16T15:10:53;19.40;70.40
61672;DHT22;47572;0.00000000;0.00000000;2022-10-16T15:13:19;19.40;70.40
61672;DHT22;47572;0.00000000;0.00000000;2022-10-16T15:15:46;19.40;70.50
61672;DHT22;47572;0.00000000;0.00000000;2022-10-16T15:18:12;19.30;70.50
61672;DHT22;47572;0.00000000;0.00000000;2022-10-16T15:20:40;19.30;70.50
61672;DHT22;47572;0.00000000;0.00000000;2022-10-16T15:23:10;19.40;70.60
61672;DHT22;47572;0.00000000;0.00000000;2022-10-16T15:25:39;19.30;70.60
61672;DHT22;47572;0.00000000;0.00000000;2022-10-16T15:28:07;19.40;70.70